sensor_id;sensor_type;location;lat;lon;timestamp;P1;durP1;ratioP1;P2;durP2;ratioP2
54123;SDS011;55741;53.252;5.788;2023-03-01T00:01:28;21.67;;;13.85;;
54123;SDS011;55741;53.252;5.788;2023-03-01T00:03:56;20.75;;;13.13;;
54123;SDS011;55741;53.252;5.788;2023-03-01T00:06:23;22.15;;;14.10;;
54123;SDS011;55741;53.252;5.788;2023-03-01T00:08:50;21.10;;;13.48;;
54123;SDS011;55741;53.252;5.788;2023-03-01T00:11:18;23.23;;;14.63;;
54123;SDS011;55741;53.252;5.788;2023-03-01T00:13:46;23.63;;;15.02;;
54123;SDS011;55741;53.252;5.788;2023-03-01T00:16:15;24.77;;;15.57;;
54123;SDS011;55741;53.252;5.788;2023-03-01T00:18:43;21.00;;;14.18;;
54123;SDS011;55741;53.252;5.788;2023-03-01T00:21:09;22.48;;;15.02;;
54123;SDS011;55741;53.252;5.788;2023-03-01T00:23:41;22.73;;;14.07;;
54123;SDS011;55741;53.252;5.788;2023-03-01T00:26:08;21.63;;;14.82;;
54123;SDS011;55741;53.252;5.788;2023-03-01T00:28:36;22.23;;;13.88;;
54123;SDS011;55741;53.252;5.788;2023-03-01T00:31:06;21.75;;;13.68;;
54123;SDS011;55741;53.252;5.788;2023-03-01T00:33:33;21.13;;;13.95;;
54123;SDS011;55741;53.252;5.788;2023-03-01T00:36:00;21.35;;;12.85;;
54123;SDS011;55741;53.252;5.788;2023-03-01T00:38:27;24.33;;;15.10;;
54123;SDS011;55741;53.252;5.788;2023-03-01T00:40:53;33.70;;;18.48;;
54123;SDS011;55741;53.252;5.788;2023-03-01T00:43:19;28.65;;;17.13;;
54123;SDS011;55741;53.252;5.788;2023-03-01T00:45:46;28.63;;;16.60;;
54123;SDS011;55741;53.252;5.788;2023-03-01T00:48:12;27.05;;;16.30;;
54123;SDS011;55741;53.252;5.788;2023-03-01T00:50:43;24.63;;;16.38;;
54123;SDS011;55741;53.252;5.788;2023-03-01T00:53:09;23.27;;;14.23;;
54123;SDS011;55741;53.252;5.788;2023-03-01T00:55:35;24.67;;;15.60;;
54123;SDS011;55741;53.252;5.788;2023-03-01T00:58:01;25.17;;;14.68;;
54123;SDS011;55741;53.252;5.788;2023-03-01T01:00:27;22.15;;;13.23;;
54123;SDS011;55741;53.252;5.788;2023-03-01T01:02:53;27.33;;;14.50;;
54123;SDS011;55741;53.252;5.788;2023-03-01T01:05:19;19.30;;;12.63;;
54123;SDS011;55741;53.252;5.788;2023-03-01T01:07:46;17.52;;;12.05;;
54123;SDS011;55741;53.252;5.788;2023-03-01T01:10:13;20.90;;;12.27;;
54123;SDS011;55741;53.252;5.788;2023-03-01T01:12:43;16.77;;;10.95;;
54123;SDS011;55741;53.252;5.788;2023-03-01T01:15:10;21.75;;;12.15;;
54123;SDS011;55741;53.252;5.788;2023-03-01T01:17:38;16.80;;;11.02;;
54123;SDS011;55741;53.252;5.788;2023-03-01T01:20:05;17.58;;;11.13;;
54123;SDS011;55741;53.252;5.788;2023-03-01T01:22:32;18.92;;;11.40;;
54123;SDS011;55741;53.252;5.788;2023-03-01T01:25:00;16.88;;;11.48;;
54123;SDS011;55741;53.252;5.788;2023-03-01T01:27:27;18.30;;;11.95;;
54123;SDS011;55741;53.252;5.788;2023-03-01T01:29:54;19.08;;;11.40;;
54123;SDS011;55741;53.252;5.788;2023-03-01T01:32:20;17.83;;;11.50;;
54123;SDS011;55741;53.252;5.788;2023-03-01T01:34:46;17.15;;;10.82;;
54123;SDS011;55741;53.252;5.788;2023-03-01T01:37:12;23.23;;;13.27;;
54123;SDS011;55741;53.252;5.788;2023-03-01T01:39:38;20.58;;;12.25;;
54123;SDS011;55741;53.252;5.788;2023-03-01T01:42:04;21.08;;;13.20;;
54123;SDS011;55741;53.252;5.788;2023-03-01T01:44:32;16.38;;;10.65;;
54123;SDS011;55741;53.252;5.788;2023-03-01T01:47:06;17.05;;;10.07;;
54123;SDS011;55741;53.252;5.788;2023-03-01T01:49:47;22.20;;;11.40;;
54123;SDS011;55741;53.252;5.788;2023-03-01T01:52:18;42.17;;;14.27;;
54123;SDS011;55741;53.252;5.788;2023-03-01T01:57:48;112.25;;;17.10;;
54123;SDS011;55741;53.252;5.788;2023-03-01T02:00:24;95.35;;;16.75;;
54123;SDS011;55741;53.252;5.788;2023-03-01T02:02:56;155.70;;;16.42;;
54123;SDS011;55741;53.252;5.788;2023-03-01T02:08:28;159.38;;;15.55;;
54123;SDS011;55741;53.252;5.788;2023-03-01T02:10:58;172.07;;;15.98;;
54123;SDS011;55741;53.252;5.788;2023-03-01T02:13:26;128.60;;;14.77;;
54123;SDS011;55741;53.252;5.788;2023-03-01T02:15:52;151.98;;;16.77;;
54123;SDS011;55741;53.252;5.788;2023-03-01T02:18:18;163.07;;;17.35;;
54123;SDS011;55741;53.252;5.788;2023-03-01T02:23:41;116.40;;;14.30;;
54123;SDS011;55741;53.252;5.788;2023-03-01T02:26:10;31.85;;;11.30;;
54123;SDS011;55741;53.252;5.788;2023-03-01T02:28:54;72.97;;;11.25;;
54123;SDS011;55741;53.252;5.788;2023-03-01T02:31:20;123.45;;;11.90;;
54123;SDS011;55741;53.252;5.788;2023-03-01T02:34:12;192.35;;;14.82;;
54123;SDS011;55741;53.252;5.788;2023-03-01T02:36:41;213.65;;;16.10;;
54123;SDS011;55741;53.252;5.788;2023-03-01T02:39:30;234.35;;;15.35;;
54123;SDS011;55741;53.252;5.788;2023-03-01T02:42:15;374.13;;;21.40;;
54123;SDS011;55741;53.252;5.788;2023-03-01T02:44:48;469.17;;;23.77;;
54123;SDS011;55741;53.252;5.788;2023-03-01T02:47:15;305.50;;;16.83;;
54123;SDS011;55741;53.252;5.788;2023-03-01T02:49:41;306.85;;;18.02;;
54123;SDS011;55741;53.252;5.788;2023-03-01T02:55:12;379.88;;;18.17;;
54123;SDS011;55741;53.252;5.788;2023-03-01T02:57:42;253.30;;;12.93;;
54123;SDS011;55741;53.252;5.788;2023-03-01T03:00:13;302.95;;;14.18;;
54123;SDS011;55741;53.252;5.788;2023-03-01T03:02:45;182.25;;;10.75;;
54123;SDS011;55741;53.252;5.788;2023-03-01T03:05:14;203.68;;;11.75;;
54123;SDS011;55741;53.252;5.788;2023-03-01T03:07:46;149.88;;;10.43;;
54123;SDS011;55741;53.252;5.788;2023-03-01T03:10:18;126.78;;;12.20;;
54123;SDS011;55741;53.252;5.788;2023-03-01T03:13:01;125.53;;;10.30;;
54123;SDS011;55741;53.252;5.788;2023-03-01T03:15:38;134.98;;;10.20;;
54123;SDS011;55741;53.252;5.788;2023-03-01T03:18:06;164.98;;;10.93;;
54123;SDS011;55741;53.252;5.788;2023-03-01T03:20:34;147.30;;;10.15;;
54123;SDS011;55741;53.252;5.788;2023-03-01T03:23:01;75.38;;;9.15;;
54123;SDS011;55741;53.252;5.788;2023-03-01T03:25:28;35.63;;;8.27;;
54123;SDS011;55741;53.252;5.788;2023-03-01T03:27:57;112.40;;;10.68;;
54123;SDS011;55741;53.252;5.788;2023-03-01T03:30:24;104.03;;;10.77;;
54123;SDS011;55741;53.252;5.788;2023-03-01T03:32:52;89.13;;;10.45;;
54123;SDS011;55741;53.252;5.788;2023-03-01T03:35:23;144.07;;;12.25;;
54123;SDS011;55741;53.252;5.788;2023-03-01T03:37:51;258.77;;;15.48;;
54123;SDS011;55741;53.252;5.788;2023-03-01T03:40:36;163.18;;;14.57;;
54123;SDS011;55741;53.252;5.788;2023-03-01T03:43:07;212.85;;;15.98;;
54123;SDS011;55741;53.252;5.788;2023-03-01T03:45:34;239.23;;;15.73;;
54123;SDS011;55741;53.252;5.788;2023-03-01T03:48:01;368.67;;;19.30;;
54123;SDS011;55741;53.252;5.788;2023-03-01T03:50:29;276.63;;;17.30;;
54123;SDS011;55741;53.252;5.788;2023-03-01T03:52:54;244.50;;;17.08;;
54123;SDS011;55741;53.252;5.788;2023-03-01T03:55:20;349.77;;;17.77;;
54123;SDS011;55741;53.252;5.788;2023-03-01T03:57:48;281.95;;;14.82;;
54123;SDS011;55741;53.252;5.788;2023-03-01T04:00:18;313.83;;;15.13;;
54123;SDS011;55741;53.252;5.788;2023-03-01T04:02:45;216.93;;;13.77;;
54123;SDS011;55741;53.252;5.788;2023-03-01T04:05:14;224.00;;;13.60;;
54123;SDS011;55741;53.252;5.788;2023-03-01T04:07:41;254.90;;;14.90;;
54123;SDS011;55741;53.252;5.788;2023-03-01T04:10:12;276.23;;;16.77;;
54123;SDS011;55741;53.252;5.788;2023-03-01T04:12:42;311.92;;;17.35;;
54123;SDS011;55741;53.252;5.788;2023-03-01T04:15:09;150.10;;;12.38;;
54123;SDS011;55741;53.252;5.788;2023-03-01T04:17:40;219.75;;;14.52;;
54123;SDS011;55741;53.252;5.788;2023-03-01T04:20:10;217.18;;;14.27;;
54123;SDS011;55741;53.252;5.788;2023-03-01T04:22:38;147.25;;;12.15;;
54123;SDS011;55741;53.252;5.788;2023-03-01T04:25:05;154.32;;;11.90;;
54123;SDS011;55741;53.252;5.788;2023-03-01T04:27:33;73.60;;;10.10;;
54123;SDS011;55741;53.252;5.788;2023-03-01T04:30:02;60.92;;;10.98;;
54123;SDS011;55741;53.252;5.788;2023-03-01T04:32:28;71.18;;;9.18;;
54123;SDS011;55741;53.252;5.788;2023-03-01T04:34:54;17.42;;;9.35;;
54123;SDS011;55741;53.252;5.788;2023-03-01T04:37:20;16.70;;;9.57;;
54123;SDS011;55741;53.252;5.788;2023-03-01T04:39:46;41.05;;;9.35;;
54123;SDS011;55741;53.252;5.788;2023-03-01T04:42:13;62.83;;;10.82;;
54123;SDS011;55741;53.252;5.788;2023-03-01T04:44:42;17.25;;;8.90;;
54123;SDS011;55741;53.252;5.788;2023-03-01T04:47:09;12.15;;;8.15;;
54123;SDS011;55741;53.252;5.788;2023-03-01T04:49:35;13.07;;;8.60;;
54123;SDS011;55741;53.252;5.788;2023-03-01T04:52:00;14.02;;;8.68;;
54123;SDS011;55741;53.252;5.788;2023-03-01T04:54:33;13.75;;;8.75;;
54123;SDS011;55741;53.252;5.788;2023-03-01T04:57:00;11.82;;;8.30;;
54123;SDS011;55741;53.252;5.788;2023-03-01T04:59:27;11.75;;;8.68;;
54123;SDS011;55741;53.252;5.788;2023-03-01T05:01:54;16.98;;;10.18;;
54123;SDS011;55741;53.252;5.788;2023-03-01T05:04:21;23.10;;;11.15;;
54123;SDS011;55741;53.252;5.788;2023-03-01T05:06:50;29.95;;;10.85;;
54123;SDS011;55741;53.252;5.788;2023-03-01T05:09:16;16.70;;;10.55;;
54123;SDS011;55741;53.252;5.788;2023-03-01T05:11:42;23.05;;;10.90;;
54123;SDS011;55741;53.252;5.788;2023-03-01T05:14:09;31.13;;;12.07;;
54123;SDS011;55741;53.252;5.788;2023-03-01T05:16:35;37.38;;;12.32;;
54123;SDS011;55741;53.252;5.788;2023-03-01T05:19:03;19.55;;;11.82;;
54123;SDS011;55741;53.252;5.788;2023-03-01T05:21:41;16.70;;;11.68;;
54123;SDS011;55741;53.252;5.788;2023-03-01T05:24:26;16.08;;;11.20;;
54123;SDS011;55741;53.252;5.788;2023-03-01T05:26:53;15.38;;;10.70;;
54123;SDS011;55741;53.252;5.788;2023-03-01T05:29:20;16.08;;;11.05;;
54123;SDS011;55741;53.252;5.788;2023-03-01T05:31:52;16.50;;;10.73;;
54123;SDS011;55741;53.252;5.788;2023-03-01T05:34:23;13.48;;;9.95;;
54123;SDS011;55741;53.252;5.788;2023-03-01T05:36:53;15.77;;;9.93;;
54123;SDS011;55741;53.252;5.788;2023-03-01T05:39:20;13.20;;;9.52;;
54123;SDS011;55741;53.252;5.788;2023-03-01T05:41:48;18.27;;;11.45;;
54123;SDS011;55741;53.252;5.788;2023-03-01T05:44:17;15.93;;;10.75;;
54123;SDS011;55741;53.252;5.788;2023-03-01T05:46:43;17.35;;;11.40;;
54123;SDS011;55741;53.252;5.788;2023-03-01T05:49:10;16.05;;;10.82;;
54123;SDS011;55741;53.252;5.788;2023-03-01T05:51:38;16.80;;;10.70;;
54123;SDS011;55741;53.252;5.788;2023-03-01T05:54:05;18.70;;;10.88;;
54123;SDS011;55741;53.252;5.788;2023-03-01T05:56:34;15.85;;;10.85;;
54123;SDS011;55741;53.252;5.788;2023-03-01T05:59:01;15.90;;;11.00;;
54123;SDS011;55741;53.252;5.788;2023-03-01T06:01:28;17.38;;;11.65;;
54123;SDS011;55741;53.252;5.788;2023-03-01T06:04:06;20.65;;;11.90;;
54123;SDS011;55741;53.252;5.788;2023-03-01T06:06:35;28.58;;;13.93;;
54123;SDS011;55741;53.252;5.788;2023-03-01T06:09:03;42.72;;;16.45;;
54123;SDS011;55741;53.252;5.788;2023-03-01T06:11:35;40.30;;;17.55;;
54123;SDS011;55741;53.252;5.788;2023-03-01T06:14:02;40.45;;;16.15;;
54123;SDS011;55741;53.252;5.788;2023-03-01T06:16:28;34.90;;;15.43;;
54123;SDS011;55741;53.252;5.788;2023-03-01T06:18:54;50.17;;;17.85;;
54123;SDS011;55741;53.252;5.788;2023-03-01T06:21:20;63.20;;;16.13;;
54123;SDS011;55741;53.252;5.788;2023-03-01T06:23:46;52.88;;;14.02;;
54123;SDS011;55741;53.252;5.788;2023-03-01T06:26:12;39.78;;;14.43;;
54123;SDS011;55741;53.252;5.788;2023-03-01T06:28:38;36.28;;;13.48;;
54123;SDS011;55741;53.252;5.788;2023-03-01T06:31:08;68.63;;;13.75;;
54123;SDS011;55741;53.252;5.788;2023-03-01T06:33:36;72.35;;;14.98;;
54123;SDS011;55741;53.252;5.788;2023-03-01T06:36:03;120.28;;;16.65;;
54123;SDS011;55741;53.252;5.788;2023-03-01T06:38:29;72.05;;;15.93;;
54123;SDS011;55741;53.252;5.788;2023-03-01T06:40:55;94.90;;;16.70;;
54123;SDS011;55741;53.252;5.788;2023-03-01T06:43:24;160.73;;;15.40;;
54123;SDS011;55741;53.252;5.788;2023-03-01T06:45:50;97.57;;;13.40;;
54123;SDS011;55741;53.252;5.788;2023-03-01T06:48:16;91.25;;;13.50;;
54123;SDS011;55741;53.252;5.788;2023-03-01T06:50:42;83.47;;;12.50;;
54123;SDS011;55741;53.252;5.788;2023-03-01T06:53:08;68.03;;;13.82;;
54123;SDS011;55741;53.252;5.788;2023-03-01T06:55:34;83.50;;;13.88;;
54123;SDS011;55741;53.252;5.788;2023-03-01T06:58:00;33.80;;;12.02;;
54123;SDS011;55741;53.252;5.788;2023-03-01T07:00:27;54.83;;;11.65;;
54123;SDS011;55741;53.252;5.788;2023-03-01T07:03:13;26.65;;;10.77;;
54123;SDS011;55741;53.252;5.788;2023-03-01T07:05:39;26.15;;;11.57;;
54123;SDS011;55741;53.252;5.788;2023-03-01T07:08:05;26.02;;;11.35;;
54123;SDS011;55741;53.252;5.788;2023-03-01T07:10:32;35.10;;;12.43;;
54123;SDS011;55741;53.252;5.788;2023-03-01T07:12:58;26.38;;;13.20;;
54123;SDS011;55741;53.252;5.788;2023-03-01T07:15:24;28.23;;;11.82;;
54123;SDS011;55741;53.252;5.788;2023-03-01T07:17:51;63.33;;;14.13;;
54123;SDS011;55741;53.252;5.788;2023-03-01T07:20:18;72.00;;;13.15;;
54123;SDS011;55741;53.252;5.788;2023-03-01T07:22:47;73.72;;;14.77;;
54123;SDS011;55741;53.252;5.788;2023-03-01T07:25:13;50.72;;;13.40;;
54123;SDS011;55741;53.252;5.788;2023-03-01T07:27:39;34.55;;;11.90;;
54123;SDS011;55741;53.252;5.788;2023-03-01T07:30:05;29.25;;;11.27;;
54123;SDS011;55741;53.252;5.788;2023-03-01T07:32:32;26.10;;;11.50;;
54123;SDS011;55741;53.252;5.788;2023-03-01T07:34:59;21.38;;;11.18;;
54123;SDS011;55741;53.252;5.788;2023-03-01T07:37:26;24.70;;;10.80;;
54123;SDS011;55741;53.252;5.788;2023-03-01T07:39:52;16.58;;;10.32;;
54123;SDS011;55741;53.252;5.788;2023-03-01T07:42:18;16.20;;;10.57;;
54123;SDS011;55741;53.252;5.788;2023-03-01T07:44:44;15.65;;;11.00;;
54123;SDS011;55741;53.252;5.788;2023-03-01T07:47:10;14.82;;;10.52;;
54123;SDS011;55741;53.252;5.788;2023-03-01T07:49:36;16.85;;;11.40;;
54123;SDS011;55741;53.252;5.788;2023-03-01T07:52:01;14.80;;;10.30;;
54123;SDS011;55741;53.252;5.788;2023-03-01T07:54:27;12.00;;;8.70;;
54123;SDS011;55741;53.252;5.788;2023-03-01T07:56:53;11.98;;;8.88;;
54123;SDS011;55741;53.252;5.788;2023-03-01T07:59:20;10.40;;;7.90;;
54123;SDS011;55741;53.252;5.788;2023-03-01T08:01:45;10.18;;;7.93;;
54123;SDS011;55741;53.252;5.788;2023-03-01T08:04:16;9.82;;;7.57;;
54123;SDS011;55741;53.252;5.788;2023-03-01T08:06:42;9.82;;;7.50;;
54123;SDS011;55741;53.252;5.788;2023-03-01T08:09:08;9.95;;;7.88;;
54123;SDS011;55741;53.252;5.788;2023-03-01T08:11:36;8.98;;;7.07;;
54123;SDS011;55741;53.252;5.788;2023-03-01T08:14:02;9.95;;;7.93;;
54123;SDS011;55741;53.252;5.788;2023-03-01T08:16:33;10.48;;;8.43;;
54123;SDS011;55741;53.252;5.788;2023-03-01T08:19:07;10.20;;;8.27;;
54123;SDS011;55741;53.252;5.788;2023-03-01T08:21:35;9.95;;;8.10;;
54123;SDS011;55741;53.252;5.788;2023-03-01T08:24:02;11.68;;;8.18;;
54123;SDS011;55741;53.252;5.788;2023-03-01T08:26:35;9.30;;;7.90;;
54123;SDS011;55741;53.252;5.788;2023-03-01T08:29:01;9.43;;;7.97;;
54123;SDS011;55741;53.252;5.788;2023-03-01T08:31:34;9.57;;;7.68;;
54123;SDS011;55741;53.252;5.788;2023-03-01T08:34:03;9.35;;;8.25;;
54123;SDS011;55741;53.252;5.788;2023-03-01T08:36:34;10.75;;;8.32;;
54123;SDS011;55741;53.252;5.788;2023-03-01T08:39:03;8.57;;;7.28;;
54123;SDS011;55741;53.252;5.788;2023-03-01T08:41:29;11.55;;;9.40;;
54123;SDS011;55741;53.252;5.788;2023-03-01T08:43:55;10.20;;;8.63;;
54123;SDS011;55741;53.252;5.788;2023-03-01T08:46:24;10.35;;;8.52;;
54123;SDS011;55741;53.252;5.788;2023-03-01T08:48:55;16.55;;;10.82;;
54123;SDS011;55741;53.252;5.788;2023-03-01T08:51:21;13.20;;;10.65;;
54123;SDS011;55741;53.252;5.788;2023-03-01T08:53:49;15.55;;;11.60;;
54123;SDS011;55741;53.252;5.788;2023-03-01T08:56:15;17.77;;;11.30;;
54123;SDS011;55741;53.252;5.788;2023-03-01T08:58:45;16.60;;;11.98;;
54123;SDS011;55741;53.252;5.788;2023-03-01T09:01:14;18.80;;;13.40;;
54123;SDS011;55741;53.252;5.788;2023-03-01T09:03:45;19.98;;;14.43;;
54123;SDS011;55741;53.252;5.788;2023-03-01T09:06:11;21.10;;;14.30;;
54123;SDS011;55741;53.252;5.788;2023-03-01T09:08:40;19.25;;;14.70;;
54123;SDS011;55741;53.252;5.788;2023-03-01T09:11:09;25.90;;;17.23;;
54123;SDS011;55741;53.252;5.788;2023-03-01T09:13:36;26.90;;;19.45;;
54123;SDS011;55741;53.252;5.788;2023-03-01T09:16:03;27.80;;;19.63;;
54123;SDS011;55741;53.252;5.788;2023-03-01T09:18:31;24.63;;;18.80;;
54123;SDS011;55741;53.252;5.788;2023-03-01T09:23:36;27.20;;;18.25;;
54123;SDS011;55741;53.252;5.788;2023-03-01T09:26:11;24.15;;;17.48;;
54123;SDS011;55741;53.252;5.788;2023-03-01T09:28:41;26.33;;;18.63;;
54123;SDS011;55741;53.252;5.788;2023-03-01T09:31:09;23.00;;;16.80;;
54123;SDS011;55741;53.252;5.788;2023-03-01T09:33:38;24.40;;;17.75;;
54123;SDS011;55741;53.252;5.788;2023-03-01T09:36:07;29.83;;;19.33;;
54123;SDS011;55741;53.252;5.788;2023-03-01T09:38:37;23.58;;;17.38;;
54123;SDS011;55741;53.252;5.788;2023-03-01T09:41:09;28.73;;;19.80;;
54123;SDS011;55741;53.252;5.788;2023-03-01T09:43:45;24.63;;;18.17;;
54123;SDS011;55741;53.252;5.788;2023-03-01T09:46:20;25.38;;;18.63;;
54123;SDS011;55741;53.252;5.788;2023-03-01T09:48:50;22.42;;;17.58;;
54123;SDS011;55741;53.252;5.788;2023-03-01T09:51:26;22.30;;;18.02;;
54123;SDS011;55741;53.252;5.788;2023-03-01T09:53:55;23.60;;;18.35;;
54123;SDS011;55741;53.252;5.788;2023-03-01T09:56:36;24.80;;;18.17;;
54123;SDS011;55741;53.252;5.788;2023-03-01T10:01:41;23.63;;;18.13;;
54123;SDS011;55741;53.252;5.788;2023-03-01T10:07:17;26.15;;;18.60;;
54123;SDS011;55741;53.252;5.788;2023-03-01T10:10:06;25.25;;;18.77;;
54123;SDS011;55741;53.252;5.788;2023-03-01T10:12:40;26.55;;;19.20;;
54123;SDS011;55741;53.252;5.788;2023-03-01T10:15:17;24.42;;;19.02;;
54123;SDS011;55741;53.252;5.788;2023-03-01T10:17:47;26.63;;;18.83;;
54123;SDS011;55741;53.252;5.788;2023-03-01T10:20:28;23.88;;;17.42;;
54123;SDS011;55741;53.252;5.788;2023-03-01T10:23:02;21.15;;;17.60;;
54123;SDS011;55741;53.252;5.788;2023-03-01T10:28:01;23.52;;;18.08;;
54123;SDS011;55741;53.252;5.788;2023-03-01T10:30:36;24.73;;;17.70;;
54123;SDS011;55741;53.252;5.788;2023-03-01T10:33:17;19.40;;;16.40;;
54123;SDS011;55741;53.252;5.788;2023-03-01T10:35:48;22.17;;;17.42;;
54123;SDS011;55741;53.252;5.788;2023-03-01T10:38:15;19.50;;;15.32;;
54123;SDS011;55741;53.252;5.788;2023-03-01T10:40:54;20.98;;;15.10;;
54123;SDS011;55741;53.252;5.788;2023-03-01T10:43:32;18.75;;;13.50;;
54123;SDS011;55741;53.252;5.788;2023-03-01T10:46:23;17.15;;;13.55;;
54123;SDS011;55741;53.252;5.788;2023-03-01T10:51:51;15.05;;;12.73;;
54123;SDS011;55741;53.252;5.788;2023-03-01T10:54:30;16.92;;;12.65;;
54123;SDS011;55741;53.252;5.788;2023-03-01T11:02:13;17.25;;;12.70;;
54123;SDS011;55741;53.252;5.788;2023-03-01T11:05:13;15.93;;;11.95;;
54123;SDS011;55741;53.252;5.788;2023-03-01T11:07:53;12.38;;;10.27;;
54123;SDS011;55741;53.252;5.788;2023-03-01T11:10:23;14.10;;;10.30;;
54123;SDS011;55741;53.252;5.788;2023-03-01T11:12:54;13.70;;;10.45;;
54123;SDS011;55741;53.252;5.788;2023-03-01T11:15:58;13.45;;;10.32;;
54123;SDS011;55741;53.252;5.788;2023-03-01T11:18:36;12.40;;;9.60;;
54123;SDS011;55741;53.252;5.788;2023-03-01T11:21:02;10.20;;;8.77;;
54123;SDS011;55741;53.252;5.788;2023-03-01T11:23:30;10.70;;;8.60;;
54123;SDS011;55741;53.252;5.788;2023-03-01T11:26:05;12.15;;;8.88;;
54123;SDS011;55741;53.252;5.788;2023-03-01T11:28:34;12.82;;;9.27;;
54123;SDS011;55741;53.252;5.788;2023-03-01T11:31:05;13.88;;;9.27;;
54123;SDS011;55741;53.252;5.788;2023-03-01T11:33:51;15.27;;;9.60;;
54123;SDS011;55741;53.252;5.788;2023-03-01T11:41:48;13.50;;;9.88;;
54123;SDS011;55741;53.252;5.788;2023-03-01T11:44:28;14.05;;;10.43;;
54123;SDS011;55741;53.252;5.788;2023-03-01T11:49:44;11.57;;;10.20;;
54123;SDS011;55741;53.252;5.788;2023-03-01T12:00:20;12.85;;;9.85;;
54123;SDS011;55741;53.252;5.788;2023-03-01T12:06:33;11.43;;;10.20;;
54123;SDS011;55741;53.252;5.788;2023-03-01T12:12:50;15.60;;;11.23;;
54123;SDS011;55741;53.252;5.788;2023-03-01T12:15:06;15.18;;;11.38;;
54123;SDS011;55741;53.252;5.788;2023-03-01T12:17:57;17.95;;;14.68;;
54123;SDS011;55741;53.252;5.788;2023-03-01T12:31:33;15.48;;;12.68;;
54123;SDS011;55741;53.252;5.788;2023-03-01T12:42:41;15.00;;;12.57;;
54123;SDS011;55741;53.252;5.788;2023-03-01T12:45:20;13.45;;;11.82;;
54123;SDS011;55741;53.252;5.788;2023-03-01T12:48:10;15.88;;;12.40;;
54123;SDS011;55741;53.252;5.788;2023-03-01T12:50:51;17.10;;;12.05;;
54123;SDS011;55741;53.252;5.788;2023-03-01T12:53:25;15.45;;;12.07;;
54123;SDS011;55741;53.252;5.788;2023-03-01T12:56:00;15.32;;;12.18;;
54123;SDS011;55741;53.252;5.788;2023-03-01T12:58:50;15.98;;;13.25;;
54123;SDS011;55741;53.252;5.788;2023-03-01T13:07:35;14.98;;;12.23;;
54123;SDS011;55741;53.252;5.788;2023-03-01T13:18:27;15.90;;;12.65;;
54123;SDS011;55741;53.252;5.788;2023-03-01T13:23:11;16.63;;;12.63;;
54123;SDS011;55741;53.252;5.788;2023-03-01T13:28:36;15.48;;;13.20;;
54123;SDS011;55741;53.252;5.788;2023-03-01T13:31:04;20.02;;;12.63;;
54123;SDS011;55741;53.252;5.788;2023-03-01T13:35:59;16.98;;;13.88;;
54123;SDS011;55741;53.252;5.788;2023-03-01T13:44:21;16.23;;;11.38;;
54123;SDS011;55741;53.252;5.788;2023-03-01T13:47:14;16.25;;;12.20;;
54123;SDS011;55741;53.252;5.788;2023-03-01T13:49:45;14.75;;;11.45;;
54123;SDS011;55741;53.252;5.788;2023-03-01T13:55:14;14.45;;;11.02;;
54123;SDS011;55741;53.252;5.788;2023-03-01T13:58:01;15.80;;;12.32;;
54123;SDS011;55741;53.252;5.788;2023-03-01T14:00:59;14.63;;;12.38;;
54123;SDS011;55741;53.252;5.788;2023-03-01T14:03:26;15.55;;;11.93;;
54123;SDS011;55741;53.252;5.788;2023-03-01T14:08:33;17.70;;;12.68;;
54123;SDS011;55741;53.252;5.788;2023-03-01T14:16:40;14.70;;;12.25;;
54123;SDS011;55741;53.252;5.788;2023-03-01T14:19:16;17.30;;;11.88;;
54123;SDS011;55741;53.252;5.788;2023-03-01T14:24:46;15.88;;;12.68;;
54123;SDS011;55741;53.252;5.788;2023-03-01T14:27:14;16.02;;;12.30;;
54123;SDS011;55741;53.252;5.788;2023-03-01T14:29:41;16.40;;;11.80;;
54123;SDS011;55741;53.252;5.788;2023-03-01T14:34:47;15.88;;;11.95;;
54123;SDS011;55741;53.252;5.788;2023-03-01T14:39:45;17.25;;;12.93;;
54123;SDS011;55741;53.252;5.788;2023-03-01T14:42:12;15.77;;;12.15;;
54123;SDS011;55741;53.252;5.788;2023-03-01T14:44:51;15.35;;;12.38;;
54123;SDS011;55741;53.252;5.788;2023-03-01T14:47:21;13.75;;;11.30;;
54123;SDS011;55741;53.252;5.788;2023-03-01T14:50:08;15.02;;;11.48;;
54123;SDS011;55741;53.252;5.788;2023-03-01T14:55:19;13.40;;;10.82;;
54123;SDS011;55741;53.252;5.788;2023-03-01T14:57:50;15.05;;;11.85;;
54123;SDS011;55741;53.252;5.788;2023-03-01T15:00:18;16.13;;;11.77;;
54123;SDS011;55741;53.252;5.788;2023-03-01T15:02:51;13.93;;;10.98;;
54123;SDS011;55741;53.252;5.788;2023-03-01T15:05:29;13.30;;;9.90;;
54123;SDS011;55741;53.252;5.788;2023-03-01T15:07:58;13.80;;;10.05;;
54123;SDS011;55741;53.252;5.788;2023-03-01T15:10:27;15.23;;;9.48;;
54123;SDS011;55741;53.252;5.788;2023-03-01T15:12:55;13.15;;;9.75;;
54123;SDS011;55741;53.252;5.788;2023-03-01T15:17:54;11.18;;;8.65;;
54123;SDS011;55741;53.252;5.788;2023-03-01T15:20:22;11.98;;;9.52;;
54123;SDS011;55741;53.252;5.788;2023-03-01T15:22:53;13.90;;;9.50;;
54123;SDS011;55741;53.252;5.788;2023-03-01T15:25:27;12.63;;;9.93;;
54123;SDS011;55741;53.252;5.788;2023-03-01T15:27:55;13.77;;;9.75;;
54123;SDS011;55741;53.252;5.788;2023-03-01T15:35:47;11.45;;;9.00;;
54123;SDS011;55741;53.252;5.788;2023-03-01T15:41:21;17.83;;;11.27;;
54123;SDS011;55741;53.252;5.788;2023-03-01T15:43:57;18.17;;;12.63;;
54123;SDS011;55741;53.252;5.788;2023-03-01T15:46:44;19.40;;;13.85;;
54123;SDS011;55741;53.252;5.788;2023-03-01T15:49:48;15.52;;;11.88;;
54123;SDS011;55741;53.252;5.788;2023-03-01T15:55:05;19.50;;;12.52;;
54123;SDS011;55741;53.252;5.788;2023-03-01T15:57:40;17.05;;;11.70;;
54123;SDS011;55741;53.252;5.788;2023-03-01T16:00:08;18.02;;;12.40;;
54123;SDS011;55741;53.252;5.788;2023-03-01T16:02:42;18.90;;;11.52;;
54123;SDS011;55741;53.252;5.788;2023-03-01T16:05:15;17.27;;;12.25;;
54123;SDS011;55741;53.252;5.788;2023-03-01T16:07:48;17.38;;;12.55;;
54123;SDS011;55741;53.252;5.788;2023-03-01T16:10:14;18.80;;;13.77;;
54123;SDS011;55741;53.252;5.788;2023-03-01T16:17:49;23.58;;;17.60;;
54123;SDS011;55741;53.252;5.788;2023-03-01T16:20:15;24.40;;;17.25;;
54123;SDS011;55741;53.252;5.788;2023-03-01T16:22:42;24.80;;;16.52;;
54123;SDS011;55741;53.252;5.788;2023-03-01T16:25:12;25.15;;;17.05;;
54123;SDS011;55741;53.252;5.788;2023-03-01T16:27:42;22.65;;;17.52;;
54123;SDS011;55741;53.252;5.788;2023-03-01T16:30:09;27.35;;;18.02;;
54123;SDS011;55741;53.252;5.788;2023-03-01T16:32:39;28.27;;;19.08;;
54123;SDS011;55741;53.252;5.788;2023-03-01T16:35:06;26.30;;;18.67;;
54123;SDS011;55741;53.252;5.788;2023-03-01T16:37:34;26.65;;;19.60;;
54123;SDS011;55741;53.252;5.788;2023-03-01T16:40:01;26.92;;;18.48;;
54123;SDS011;55741;53.252;5.788;2023-03-01T16:42:33;27.05;;;18.38;;
54123;SDS011;55741;53.252;5.788;2023-03-01T16:45:00;25.23;;;18.23;;
54123;SDS011;55741;53.252;5.788;2023-03-01T16:47:28;31.33;;;19.35;;
54123;SDS011;55741;53.252;5.788;2023-03-01T16:49:54;25.92;;;16.92;;
54123;SDS011;55741;53.252;5.788;2023-03-01T16:52:21;30.25;;;18.65;;
54123;SDS011;55741;53.252;5.788;2023-03-01T16:54:47;28.00;;;17.40;;
54123;SDS011;55741;53.252;5.788;2023-03-01T16:57:16;25.70;;;18.95;;
54123;SDS011;55741;53.252;5.788;2023-03-01T16:59:42;24.85;;;17.02;;
54123;SDS011;55741;53.252;5.788;2023-03-01T17:02:11;26.75;;;18.95;;